createdAt,value
2022-09-23T00:00:24.561Z,60.26
2022-09-23T00:03:35.346Z,60.44
2022-09-23T00:06:24.515Z,60.98
2022-09-23T00:09:46.507Z,61.12
2022-09-23T00:12:37.367Z,60.86
2022-09-23T00:15:14.400Z,61.61
2022-09-23T00:20:37.979Z,65.28
2022-09-23T00:23:10.714Z,57.44
2022-09-23T00:25:43.865Z,54.98
2022-09-23T00:28:14.482Z,55.62
2022-09-23T00:30:44.883Z,56.72
2022-09-23T00:33:15.160Z,57.88
2022-09-23T00:35:43.529Z,58.37
2022-09-23T00:38:12.034Z,58.84
2022-09-23T00:40:49.769Z,59.34
2022-09-23T00:43:22.729Z,60.13
2022-09-23T00:46:05.345Z,60.46
2022-09-23T00:48:47.374Z,60.47
2022-09-23T00:51:19.843Z,60.98
2022-09-23T00:53:48.049Z,61.20
2022-09-23T00:56:21.008Z,60.68
2022-09-23T00:58:50.643Z,61.48
2022-09-23T01:01:19.676Z,61.83
2022-09-23T01:03:50.476Z,65.58
2022-09-23T01:06:18.541Z,66.86
2022-09-23T01:08:48.565Z,61.19
2022-09-23T01:11:21.325Z,54.06
2022-09-23T01:14:17.140Z,52.64
2022-09-23T01:16:56.656Z,53.63
2022-09-23T01:19:37.397Z,54.90
2022-09-23T01:22:16.773Z,55.53
2022-09-23T01:25:16.741Z,56.42
2022-09-23T01:28:21.246Z,56.87
2022-09-23T01:31:08.134Z,58.04
2022-09-23T01:33:47.181Z,58.82
2022-09-23T01:36:37.058Z,59.69
2022-09-23T01:39:17.126Z,59.91
2022-09-23T01:42:22.242Z,60.24
2022-09-23T01:44:56.645Z,59.96
2022-09-23T01:47:36.144Z,60.74
2022-09-23T01:50:51.201Z,61.02
2022-09-23T01:53:24.888Z,61.22
2022-09-23T01:55:57.961Z,61.95
2022-09-23T01:58:33.822Z,67.13
2022-09-23T02:01:09.904Z,65.97
2022-09-23T02:03:53.084Z,57.30
2022-09-23T02:06:21.992Z,54.56
2022-09-23T02:09:22.201Z,55.40
2022-09-23T02:11:52.642Z,55.92
2022-09-23T02:14:24.597Z,56.77
2022-09-23T02:16:58.253Z,57.44
2022-09-23T02:19:36.282Z,57.63
2022-09-23T02:22:38.247Z,58.73
2022-09-23T02:25:07.874Z,59.43
2022-09-23T02:27:51.919Z,59.92
2022-09-23T02:30:34.843Z,60.07
2022-09-23T02:33:05.061Z,60.45
2022-09-23T02:35:43.518Z,60.61
2022-09-23T02:38:26.821Z,60.80
2022-09-23T02:41:09.651Z,61.30
2022-09-23T02:44:00.066Z,65.98
2022-09-23T02:46:30.315Z,66.36
2022-09-23T02:49:11.233Z,57.52
2022-09-23T02:51:41.040Z,53.75
2022-09-23T02:54:14.976Z,54.49
2022-09-23T02:56:43.389Z,55.73
2022-09-23T02:59:19.458Z,56.30
2022-09-23T03:02:00.539Z,56.68
2022-09-23T03:04:50.451Z,57.25
2022-09-23T03:07:23.817Z,57.69
2022-09-23T03:10:10.836Z,58.53
2022-09-23T03:12:46.111Z,59.18
2022-09-23T03:15:26.415Z,59.70
2022-09-23T03:18:01.544Z,59.96
2022-09-23T03:20:58.360Z,60.47
2022-09-23T03:23:33.680Z,60.88
2022-09-23T03:26:07.463Z,61.15
2022-09-23T03:28:42.090Z,61.88
2022-09-23T03:31:12.325Z,66.51
2022-09-23T03:34:01.757Z,66.31
2022-09-23T03:36:51.625Z,58.72
2022-09-23T03:39:47.977Z,52.41
2022-09-23T03:42:27.110Z,52.64
2022-09-23T03:44:57.955Z,54.00
2022-09-23T03:47:28.906Z,55.08
2022-09-23T03:49:58.206Z,55.94
2022-09-23T03:52:26.878Z,56.49
2022-09-23T03:54:57.921Z,56.97
2022-09-23T03:57:26.114Z,57.30
2022-09-23T03:59:54.139Z,57.71
2022-09-23T04:02:22.458Z,57.91
2022-09-23T04:04:51.548Z,58.53
2022-09-23T04:07:19.627Z,59.22
2022-09-23T04:09:47.862Z,59.65
2022-09-23T04:12:16.645Z,60.39
2022-09-23T04:14:45.430Z,60.79
2022-09-23T04:17:13.507Z,61.29
2022-09-23T04:19:45.179Z,61.56
2022-09-23T04:22:15.906Z,61.74
2022-09-23T04:24:44.684Z,61.93
2022-09-23T04:27:12.872Z,66.02
2022-09-23T04:29:43.651Z,66.49
2022-09-23T04:32:11.882Z,59.15
2022-09-23T04:34:41.286Z,53.05
2022-09-23T04:37:10.378Z,52.70
2022-09-23T04:39:38.321Z,53.66
2022-09-23T04:42:07.657Z,54.80
2022-09-23T04:44:35.910Z,55.79
2022-09-23T04:47:05.569Z,56.44
2022-09-23T04:49:35.932Z,57.22
2022-09-23T04:52:08.371Z,57.54
2022-09-23T04:54:36.984Z,58.13
2022-09-23T04:57:08.334Z,58.59
2022-09-23T04:59:38.760Z,58.87
2022-09-23T05:02:08.539Z,59.56
2022-09-23T05:04:41.488Z,59.22
2022-09-23T05:07:10.666Z,60.46
2022-09-23T05:09:43.739Z,60.80
2022-09-23T05:12:12.226Z,61.45
2022-09-23T05:14:50.169Z,67.63
2022-09-23T05:17:21.994Z,66.76
2022-09-23T05:19:51.714Z,59.06
2022-09-23T05:22:22.059Z,53.03
2022-09-23T05:24:52.042Z,52.68
2022-09-23T05:27:22.582Z,53.87
2022-09-23T05:29:56.281Z,54.94
2022-09-23T05:32:33.456Z,55.78
2022-09-23T05:35:04.813Z,56.72
2022-09-23T05:37:35.146Z,57.58
2022-09-23T05:40:06.163Z,58.26
2022-09-23T05:42:34.978Z,58.99
2022-09-23T05:45:04.667Z,59.79
2022-09-23T05:47:34.619Z,60.64
2022-09-23T05:50:12.326Z,61.24
2022-09-23T05:52:44.857Z,61.78
2022-09-23T05:55:15.573Z,61.77
2022-09-23T05:57:56.983Z,67.80
2022-09-23T06:00:28.496Z,65.84
2022-09-23T06:03:06.235Z,57.34
2022-09-23T06:05:40.526Z,54.37
2022-09-23T06:08:11.805Z,55.30
2022-09-23T06:10:45.478Z,56.59
2022-09-23T06:13:17.970Z,57.71
2022-09-23T06:15:51.514Z,58.41
2022-09-23T06:18:19.722Z,58.90
2022-09-23T06:20:49.162Z,59.60
2022-09-23T06:23:17.002Z,60.07
2022-09-23T06:28:37.834Z,60.99
2022-09-23T06:31:14.290Z,61.06
2022-09-23T06:33:46.052Z,61.81
2022-09-23T06:36:35.953Z,66.99
2022-09-23T06:39:06.955Z,64.77
2022-09-23T06:41:35.722Z,56.66
2022-09-23T06:44:08.921Z,54.66
2022-09-23T06:46:37.029Z,55.45
2022-09-23T06:49:06.959Z,56.37
2022-09-23T06:51:34.989Z,57.48
2022-09-23T06:54:09.122Z,58.49
2022-09-23T06:56:39.505Z,59.01
2022-09-23T06:59:13.141Z,59.02
2022-09-23T07:01:45.319Z,59.35
2022-09-23T07:04:14.651Z,59.56
2022-09-23T07:06:42.654Z,59.27
2022-09-23T07:09:14.349Z,59.65
2022-09-23T07:11:42.393Z,59.58
2022-09-23T07:14:14.180Z,59.85
2022-09-23T07:16:42.731Z,59.94
2022-09-23T07:19:12.285Z,60.26
2022-09-23T07:21:41.634Z,60.16
2022-09-23T07:24:09.659Z,60.07
2022-09-23T07:26:44.894Z,60.35
2022-09-23T07:29:14.648Z,60.89
2022-09-23T07:31:43.350Z,60.82
2022-09-23T07:34:11.753Z,60.78
2022-09-23T07:36:43.058Z,61.17
2022-09-23T07:39:13.773Z,60.81
2022-09-23T07:41:44.620Z,60.99
2022-09-23T07:44:12.917Z,61.19
2022-09-23T07:46:44.811Z,61.15
2022-09-23T07:49:13.677Z,61.19
2022-09-23T07:51:45.970Z,60.58
2022-09-23T07:54:16.384Z,60.08
2022-09-23T07:56:45.140Z,59.81
2022-09-23T07:59:19.347Z,59.84
2022-09-23T08:01:50.631Z,60.00
2022-09-23T08:04:22.126Z,60.67
2022-09-23T08:06:52.281Z,60.63
2022-09-23T08:09:22.093Z,60.17
2022-09-23T08:11:51.066Z,60.30
2022-09-23T08:14:19.649Z,60.04
2022-09-23T08:16:47.746Z,59.80
2022-09-23T08:19:16.513Z,59.50
2022-09-23T08:21:49.398Z,59.06
2022-09-23T08:24:21.021Z,58.90
2022-09-23T08:26:53.325Z,57.94
2022-09-23T08:29:22.935Z,58.45
2022-09-23T08:31:54.183Z,59.04
2022-09-23T08:34:24.022Z,58.39
2022-09-23T08:36:52.490Z,57.01
2022-09-23T08:39:21.687Z,56.99
2022-09-23T08:42:02.459Z,57.56
2022-09-23T08:45:03.170Z,56.33
2022-09-23T08:48:10.823Z,56.31
2022-09-23T08:50:50.719Z,55.32
2022-09-23T08:53:29.963Z,54.25
2022-09-23T08:56:18.408Z,53.97
2022-09-23T08:59:05.510Z,53.12
2022-09-23T09:01:41.869Z,53.86
2022-09-23T09:04:42.401Z,53.51
2022-09-23T09:07:35.172Z,51.80
2022-09-23T09:10:18.683Z,52.02
2022-09-23T09:13:00.476Z,51.26
2022-09-23T09:15:31.162Z,50.26
2022-09-23T09:18:25.608Z,50.07
2022-09-23T09:21:08.520Z,48.83
2022-09-23T09:23:46.482Z,48.07
2022-09-23T09:26:23.004Z,47.85
2022-09-23T09:29:11.413Z,48.13
2022-09-23T09:31:51.304Z,45.20
2022-09-23T09:34:45.671Z,45.46
2022-09-23T09:37:38.418Z,45.22
2022-09-23T09:40:12.921Z,43.66
2022-09-23T09:42:50.027Z,43.43
2022-09-23T09:45:33.530Z,43.47
2022-09-23T09:54:18.213Z,42.18
2022-09-23T09:59:25.715Z,40.70
2022-09-23T10:02:32.730Z,40.86
2022-09-23T10:05:03.241Z,41.90
2022-09-23T10:07:32.759Z,40.86
2022-09-23T10:10:32.292Z,40.05
2022-09-23T10:13:15.051Z,39.23
2022-09-23T10:15:45.021Z,38.97
2022-09-23T10:18:24.730Z,39.47
2022-09-23T10:20:52.599Z,38.83
2022-09-23T10:23:24.371Z,39.64
2022-09-23T10:26:01.141Z,39.73
2022-09-23T10:28:50.357Z,40.54
2022-09-23T10:31:35.642Z,39.27
2022-09-23T10:34:24.706Z,38.10
2022-09-23T10:37:25.229Z,37.32
2022-09-23T10:40:11.844Z,38.07
2022-09-23T10:43:13.307Z,39.24
2022-09-23T10:46:06.629Z,40.75
2022-09-23T10:48:55.966Z,41.06
2022-09-23T10:51:51.607Z,42.25
2022-09-23T10:54:44.253Z,42.16
2022-09-23T10:57:41.680Z,42.41
2022-09-23T11:00:24.962Z,42.15
2022-09-23T11:03:12.902Z,42.20
2022-09-23T11:06:06.777Z,41.26
2022-09-23T11:08:53.699Z,41.58
2022-09-23T11:11:48.901Z,39.99
2022-09-23T11:14:41.030Z,38.44
2022-09-23T11:17:33.589Z,37.98
2022-09-23T11:20:31.206Z,37.41
2022-09-23T11:23:05.697Z,36.72
2022-09-23T11:25:47.157Z,35.62
2022-09-23T11:28:30.184Z,35.76
2022-09-23T11:31:05.720Z,35.47
2022-09-23T11:33:42.505Z,35.92
2022-09-23T11:36:28.530Z,36.23
2022-09-23T11:38:57.253Z,36.69
2022-09-23T11:41:38.547Z,36.35
2022-09-23T11:44:12.591Z,36.38
2022-09-23T11:46:49.419Z,36.15
2022-09-23T11:49:17.215Z,35.85
2022-09-23T11:52:14.403Z,34.75
2022-09-23T11:55:04.673Z,33.13
2022-09-23T11:57:52.925Z,32.46
2022-09-23T12:00:38.435Z,31.97
2022-09-23T12:03:23.545Z,30.53
2022-09-23T12:05:56.690Z,31.34
2022-09-23T12:08:32.353Z,30.20
2022-09-23T12:11:20.301Z,30.53
2022-09-23T12:14:16.422Z,30.25
2022-09-23T12:16:48.709Z,30.38
2022-09-23T12:19:55.481Z,29.33
2022-09-23T12:22:26.652Z,28.47
2022-09-23T12:24:56.881Z,27.93
2022-09-23T12:27:40.234Z,28.19
2022-09-23T12:30:15.186Z,28.22
2022-09-23T12:32:43.462Z,28.50
2022-09-23T12:35:26.957Z,28.11
2022-09-23T12:37:54.834Z,28.02
2022-09-23T12:40:31.089Z,27.60
2022-09-23T12:43:01.205Z,27.62
2022-09-23T12:45:34.830Z,27.76
2022-09-23T12:48:43.745Z,27.32
2022-09-23T12:51:16.351Z,27.87
2022-09-23T12:53:59.766Z,27.00
2022-09-23T12:56:38.625Z,27.83
2022-09-23T12:59:09.449Z,26.40
2022-09-23T13:01:38.047Z,26.27
2022-09-23T13:04:24.616Z,27.09
2022-09-23T13:07:08.836Z,28.03
2022-09-23T13:09:41.576Z,28.07
2022-09-23T13:12:18.816Z,28.38
2022-09-23T13:14:49.746Z,28.63
2022-09-23T13:17:29.817Z,28.25
2022-09-23T13:20:02.756Z,28.86
2022-09-23T13:23:01.795Z,29.40
2022-09-23T13:25:35.058Z,29.32
2022-09-23T13:28:03.834Z,28.15
2022-09-23T13:30:31.646Z,28.03
2022-09-23T13:33:18.833Z,27.95
2022-09-23T13:35:52.403Z,28.73
2022-09-23T13:38:26.214Z,28.38
2022-09-23T13:40:57.599Z,28.03
2022-09-23T13:43:31.839Z,26.96
2022-09-23T13:46:01.016Z,25.80
2022-09-23T13:48:28.885Z,25.33
2022-09-23T13:50:56.918Z,24.48
2022-09-23T13:53:29.262Z,23.71
2022-09-23T13:56:15.921Z,23.57
2022-09-23T13:58:43.720Z,22.85
2022-09-23T14:01:33.778Z,22.19
2022-09-23T14:04:04.904Z,22.50
2022-09-23T14:06:36.039Z,22.19
2022-09-23T14:09:03.901Z,21.49
2022-09-23T14:11:35.407Z,21.62
2022-09-23T14:14:07.416Z,21.53
2022-09-23T14:16:38.154Z,21.69
2022-09-23T14:19:08.086Z,22.34
2022-09-23T14:21:37.774Z,22.04
2022-09-23T14:24:41.467Z,21.08
2022-09-23T14:27:19.043Z,20.40
2022-09-23T14:29:48.222Z,20.79
2022-09-23T14:32:21.247Z,21.55
2022-09-23T14:34:59.503Z,22.59
2022-09-23T14:38:10.612Z,22.99
2022-09-23T14:40:51.344Z,22.59
2022-09-23T14:43:26.199Z,21.86
2022-09-23T14:45:55.938Z,22.24
2022-09-23T14:48:27.360Z,22.75
2022-09-23T14:51:06.624Z,24.29
2022-09-23T14:53:34.444Z,25.50
2022-09-23T14:56:08.473Z,28.30
2022-09-23T14:58:54.734Z,29.36
2022-09-23T15:01:27.728Z,29.62
2022-09-23T15:03:56.151Z,31.66
2022-09-23T15:06:24.791Z,33.19
2022-09-23T15:08:53.398Z,34.13
2022-09-23T15:11:25.272Z,34.72
2022-09-23T15:13:52.951Z,34.51
2022-09-23T15:16:28.006Z,34.31
2022-09-23T15:18:57.870Z,35.16
2022-09-23T15:21:41.036Z,35.09
2022-09-23T15:24:41.394Z,35.47
2022-09-23T15:27:29.339Z,36.18
2022-09-23T15:30:17.082Z,37.22
2022-09-23T15:32:45.798Z,38.20
2022-09-23T15:35:19.150Z,39.60
2022-09-23T15:37:49.275Z,40.64
2022-09-23T15:40:22.659Z,41.69
2022-09-23T15:42:53.793Z,41.67
2022-09-23T15:45:29.308Z,41.01
2022-09-23T15:48:00.984Z,40.26
2022-09-23T15:50:30.235Z,40.65
2022-09-23T15:52:59.475Z,41.51
2022-09-23T15:55:27.494Z,42.12
2022-09-23T15:57:57.170Z,42.26
2022-09-23T16:00:25.362Z,44.20
2022-09-23T16:02:54.072Z,46.07
2022-09-23T16:05:37.002Z,46.88
2022-09-23T16:08:08.937Z,48.04
2022-09-23T16:10:37.805Z,48.61
2022-09-23T16:13:08.877Z,49.39
2022-09-23T16:15:39.105Z,49.89
2022-09-23T16:18:08.627Z,50.52
2022-09-23T16:20:44.723Z,51.09
2022-09-23T16:23:34.463Z,51.60
2022-09-23T16:26:06.330Z,52.07
2022-09-23T16:28:34.493Z,52.73
2022-09-23T16:31:03.095Z,53.39
2022-09-23T16:33:31.007Z,53.91
2022-09-23T16:36:00.897Z,54.60
2022-09-23T16:38:29.558Z,55.15
2022-09-23T16:41:00.176Z,55.81
2022-09-23T16:43:31.719Z,56.88
2022-09-23T16:45:59.644Z,57.34
2022-09-23T16:48:27.488Z,57.80
2022-09-23T16:50:55.277Z,58.48
2022-09-23T16:53:23.567Z,58.13
2022-09-23T16:55:53.474Z,58.91
2022-09-23T16:58:21.317Z,59.47
2022-09-23T17:01:07.921Z,59.43
2022-09-23T17:03:41.972Z,59.16
2022-09-23T17:06:13.517Z,58.77
2022-09-23T17:08:42.827Z,59.23
2022-09-23T17:11:11.133Z,60.51
2022-09-23T17:13:41.237Z,60.50
2022-09-23T17:16:11.815Z,61.21
2022-09-23T17:18:39.682Z,61.69
2022-09-23T17:21:08.598Z,65.97
2022-09-23T17:23:37.176Z,65.01
2022-09-23T17:26:05.508Z,59.82
2022-09-23T17:28:33.488Z,55.47
2022-09-23T17:31:03.822Z,54.31
2022-09-23T17:33:35.239Z,55.23
2022-09-23T17:36:07.788Z,56.50
2022-09-23T17:38:36.110Z,57.34
2022-09-23T17:41:04.857Z,58.03
2022-09-23T17:43:33.536Z,58.55
2022-09-23T17:46:06.382Z,58.99
2022-09-23T17:48:36.003Z,59.12
2022-09-23T17:51:06.451Z,60.21
2022-09-23T17:53:37.079Z,60.82
2022-09-23T17:56:08.292Z,61.26
2022-09-23T17:58:37.524Z,61.61
2022-09-23T18:01:12.475Z,61.94
2022-09-23T18:03:43.479Z,66.04
2022-09-23T18:06:19.550Z,65.15
2022-09-23T18:08:49.286Z,59.62
2022-09-23T18:11:25.413Z,54.59
2022-09-23T18:14:01.286Z,53.77
2022-09-23T18:16:31.256Z,54.42
2022-09-23T18:19:00.710Z,55.39
2022-09-23T18:21:31.589Z,56.09
2022-09-23T18:24:28.057Z,56.45
2022-09-23T18:26:49.783Z,57.51
2022-09-23T18:29:18.616Z,58.40
2022-09-23T18:31:51.112Z,58.90
2022-09-23T18:34:20.448Z,59.68
2022-09-23T18:36:48.409Z,60.01
2022-09-23T18:39:16.738Z,59.96
2022-09-23T18:41:45.173Z,60.06
2022-09-23T18:44:13.090Z,60.36
2022-09-23T18:46:40.873Z,60.90
2022-09-23T18:49:27.751Z,61.32
2022-09-23T18:51:57.436Z,61.28
2022-09-23T18:54:28.471Z,61.65
2022-09-23T18:56:56.800Z,61.81
2022-09-23T18:59:28.024Z,61.76
2022-09-23T19:02:00.479Z,65.16
2022-09-23T19:04:29.098Z,64.97
2022-09-23T19:06:57.984Z,57.39
2022-09-23T19:09:26.272Z,54.75
2022-09-23T19:11:54.372Z,55.66
2022-09-23T19:14:22.320Z,56.67
2022-09-23T19:16:50.903Z,57.76
2022-09-23T19:19:18.837Z,57.07
2022-09-23T19:21:46.698Z,57.27
2022-09-23T19:24:19.853Z,57.61
2022-09-23T19:26:48.751Z,57.87
2022-09-23T19:29:22.019Z,58.11
2022-09-23T19:31:51.054Z,58.78
2022-09-23T19:34:23.771Z,59.22
2022-09-23T19:36:53.028Z,59.58
2022-09-23T19:39:23.452Z,60.03
2022-09-23T19:41:52.473Z,60.11
2022-09-23T19:44:20.545Z,60.27
2022-09-23T19:46:55.010Z,60.59
2022-09-23T19:49:25.886Z,60.62
2022-09-23T19:51:55.969Z,60.87
2022-09-23T19:54:27.470Z,61.12
2022-09-23T19:56:56.073Z,61.37
2022-09-23T19:59:26.555Z,61.71
2022-09-23T20:01:54.955Z,61.86
2022-09-23T20:04:23.516Z,65.62
2022-09-23T20:06:52.356Z,66.38
2022-09-23T20:09:20.811Z,60.01
2022-09-23T20:11:48.804Z,54.02
2022-09-23T20:14:17.933Z,52.94
2022-09-23T20:16:46.231Z,53.81
2022-09-23T20:19:14.281Z,54.62
2022-09-23T20:21:42.090Z,55.86
2022-09-23T20:24:11.929Z,56.86
2022-09-23T20:26:58.169Z,57.48
2022-09-23T20:29:26.449Z,57.95
2022-09-23T20:31:54.423Z,58.36
2022-09-23T20:34:22.565Z,58.74
2022-09-23T20:36:50.651Z,59.22
2022-09-23T20:39:18.434Z,59.85
2022-09-23T20:41:48.156Z,60.28
2022-09-23T20:44:16.105Z,60.47
2022-09-23T20:46:48.773Z,60.88
2022-09-23T20:49:17.688Z,61.30
2022-09-23T20:51:48.240Z,61.54
2022-09-23T20:54:21.590Z,61.81
2022-09-23T20:56:49.451Z,65.83
2022-09-23T20:59:18.502Z,65.95
2022-09-23T21:01:46.580Z,60.67
2022-09-23T21:04:14.521Z,54.97
2022-09-23T21:06:42.263Z,53.69
2022-09-23T21:09:10.045Z,54.48
2022-09-23T21:11:38.188Z,55.19
2022-09-23T21:14:06.072Z,56.16
2022-09-23T21:16:34.073Z,56.85
2022-09-23T21:19:03.349Z,57.41
2022-09-23T21:21:31.203Z,58.55
2022-09-23T21:24:17.167Z,58.68
2022-09-23T21:26:47.777Z,59.00
2022-09-23T21:29:16.214Z,59.75
2022-09-23T21:31:44.195Z,60.18
2022-09-23T21:34:12.682Z,60.52
2022-09-23T21:36:43.103Z,60.87
2022-09-23T21:39:11.507Z,61.01
2022-09-23T21:41:40.025Z,61.41
2022-09-23T21:44:08.515Z,61.67
2022-09-23T21:46:36.813Z,65.47
2022-09-23T21:49:05.334Z,66.19
2022-09-23T21:51:40.796Z,61.91
2022-09-23T21:54:15.522Z,55.04
2022-09-23T21:56:44.000Z,53.93
2022-09-23T21:59:12.031Z,54.63
2022-09-23T22:01:43.553Z,55.76
2022-09-23T22:04:16.990Z,56.40
2022-09-23T22:06:45.716Z,56.93
2022-09-23T22:09:16.899Z,57.84
2022-09-23T22:12:03.902Z,58.52
2022-09-23T22:14:32.011Z,58.89
2022-09-23T22:17:01.356Z,59.72
2022-09-23T22:19:35.462Z,60.28
2022-09-23T22:22:13.291Z,60.54
2022-09-23T22:24:44.954Z,60.97
2022-09-23T22:27:14.417Z,61.14
2022-09-23T22:30:00.795Z,61.34
2022-09-23T22:32:46.161Z,61.75
2022-09-23T22:35:19.176Z,67.33
2022-09-23T22:37:48.245Z,65.25
2022-09-23T22:40:16.366Z,59.71
2022-09-23T22:42:44.488Z,54.37
2022-09-23T22:45:13.435Z,53.38
2022-09-23T22:47:45.149Z,54.46
2022-09-23T22:50:14.687Z,55.45
2022-09-23T22:52:43.197Z,56.47
2022-09-23T22:55:11.741Z,57.28
2022-09-23T22:57:39.621Z,58.19
2022-09-23T23:01:43.644Z,58.90
2022-09-23T23:04:13.255Z,58.91
2022-09-23T23:06:44.006Z,60.09
2022-09-23T23:09:16.893Z,59.79
2022-09-23T23:11:47.427Z,61.14
2022-09-23T23:14:18.056Z,61.64
2022-09-23T23:16:46.580Z,66.25
2022-09-23T23:19:17.523Z,66.89
2022-09-23T23:21:48.815Z,60.84
2022-09-23T23:24:23.234Z,55.12
2022-09-23T23:26:53.564Z,54.15
2022-09-23T23:29:24.145Z,55.06
2022-09-23T23:31:52.612Z,56.23
2022-09-23T23:34:21.586Z,57.08
2022-09-23T23:36:54.738Z,57.72
2022-09-23T23:39:25.398Z,58.47
2022-09-23T23:41:59.404Z,59.51
2022-09-23T23:44:27.792Z,59.94
2022-09-23T23:46:56.017Z,60.28
2022-09-23T23:49:28.797Z,61.06
2022-09-23T23:51:59.280Z,65.67
2022-09-23T23:54:27.548Z,64.83
2022-09-23T23:56:55.748Z,57.59
2022-09-23T23:59:27.670Z,55.37
